Jack C. Davis Observatory, Carson City, Nevada Weather observations

Data are for observation ending at time listed.
 Day   Time    Ave.   Ave.  Ave.  Vector   Max.   Stn.    Total    Solar   Ave.  
  of    of     Air    Rel.  Wind   Wind    Wind   Baro.  Precip.   Rad.    Soil  
Year   Day     Temp.  Hum.  Speed  Dir.    Gust   Pres.                    Temp. 
2026   (PST)    F      %     mph   deg.    mph     mb.     in.     W/m2     F   
------------------------------------------------------------------------------
 126   11:40   70.4    26    6.1   317     12.1   850.1    0.00     996    999.0
 126   11:50   71.7    23    3.8   346     11.6   850.1    0.00    1002    999.0
 126   12:00   72.0    21    5.7   354     12.6   850.0    0.00    1007    999.0
 126   12:10   72.2    18    6.1    37     13.6   850.1    0.00    1009    999.0
 126   12:20   72.8    19    6.1    36     13.0   850.0    0.00    1008    999.0
 126   12:30   72.7    18    4.9    42     13.2   849.9    0.00    1000    999.0
 126   12:40   72.6    17    4.9    28     11.2   849.8    0.00     992    999.0
 126   12:50   73.0    16    4.7    14     12.8   849.9    0.00     984    999.0
 126   13:00   73.2    17    6.8    33     14.0   849.8    0.00     975    999.0
 126   13:10   73.0    18    6.1    39     13.4   849.7    0.00     964    999.0
 126   13:20   73.3    16    5.8    40     14.2   849.7    0.00     954    999.0
 126   13:30   73.5    16    6.8    32     13.1   849.6    0.00     942    999.0
 126   13:40   73.7    17    5.7    35     13.2   849.6    0.00     924    999.0
 126   13:50   74.2    17    5.3     4     11.3   849.5    0.00     908    999.0
 126   14:00   74.6    17    5.9   338     13.2   849.4    0.00     892    999.0
 126   14:10   75.3    16    4.0     5     11.1   849.3    0.00     873    999.0
 126   14:20   75.8    16    4.5   346     14.9   849.2    0.00     853    999.0
 126   14:30   75.8    14    4.1   353      9.1   849.1    0.00     834    999.0
 126   14:40   76.3    15    3.6    26      9.6   849.0    0.00     808    999.0
 126   14:50   76.6    14    3.4   357      9.7   848.9    0.00     786    999.0
 126   15:00   75.6    15    7.1   310     10.9   848.8    0.00     757    999.0
 126   15:10   75.5    15    4.5   331      9.1   848.7    0.00     730    999.0
 126   15:20   75.9    15    4.0   293      9.7   848.6    0.00     702    999.0
 126   15:30   75.7    14    4.6   311      9.6   848.6    0.00     672    999.0
 126   15:40   76.7    14    2.4   230      4.4   848.5    0.00     643    999.0
 126   15:50   77.2    14    3.3   315      8.9   848.4    0.00     613    999.0
 126   16:00   76.6    14    3.6   318      9.4   848.4    0.00     581    999.0
 126   16:10   76.4    14    4.9   302      9.6   848.5    0.00     547    999.0
 126   16:20   75.8    15    4.8   303      8.1   848.5    0.00     511    999.0
 126   16:30   75.8    16    5.1   303      9.5   848.5    0.00     477    999.0
 126   16:40   75.7    16    4.7   298      8.0   848.5    0.00     444    999.0
 126   16:50   75.3    16    5.0   306      8.1   848.5    0.00     409    999.0
 126   17:00   75.3    17    4.0   301      7.5   848.5    0.00     375    999.0
 126   17:10   75.6    17    3.3   288      5.8   848.5    0.00     339    999.0
 126   17:20   75.3    17    3.3   289      5.5   848.4    0.00     305    999.0
 126   17:30   74.3    19    4.6   265      7.3   848.4    0.00     270    999.0
 126   17:40   73.6    21    4.9   278      7.3   848.4    0.00     235    999.0
 126   17:50   71.9    23    5.5   276      7.7   848.4    0.00     201    999.0
 126   18:00   69.2    25    6.0   275      8.6   848.5    0.00      78    999.0
 126   18:10   66.4    28    6.1   269      7.9   848.5    0.00      24    999.0
 126   18:20   66.3    27    6.4   272      8.6   848.4    0.00      21    999.0
 126   18:30   66.2    26    6.7   272      9.1   848.5    0.00      18    999.0
 126   18:40   66.1    26    6.6   272      8.6   848.5    0.00      14    999.0
 126   18:50   66.0    26    6.6   272      9.3   848.6    0.00      11    999.0
 126   19:00   65.6    26    3.7   304      7.6   848.6    0.00       6    999.0
 126   19:10   65.0    27    3.7   296      7.6   848.7    0.00       2    999.0
 126   19:20   64.7    27    4.7   284      8.3   848.8    0.00       1    999.0
 126   19:30   64.9    27    4.2   288      8.5   848.9    0.00       0    999.0
 126   19:40   64.9    27    4.7   300      7.7   848.9    0.00       0    999.0
 126   19:50   64.1    28    4.7   304      7.3   849.0    0.00       0    999.0
 126   20:00   64.3    28    3.9   304      6.5   849.1    0.00       0    999.0
 126   20:10   62.4    31    3.3   295      5.4   849.2    0.00       0    999.0
 126   20:20   61.8    31    5.4   260      7.5   849.4    0.00       0    999.0
 126   20:30   62.9    29    7.1   247     10.0   849.4    0.00       0    999.0
 126   20:40   62.8    31    6.9   241      9.2   849.4    0.00       0    999.0
 126   20:50   62.9    32    7.6   261     12.8   849.4    0.00       0    999.0
 126   21:00   64.4    32    4.2   277     12.1   849.6    0.00       0    999.0
 126   21:10   64.1    32    1.6   332      6.6   849.7    0.00       0    999.0
 126   21:20   62.6    35    2.1    11      6.1   849.7    0.00       0    999.0
 126   21:30   62.1    37    1.8   352      3.9   849.7    0.00       0    999.0
 126   21:40   61.6    38    2.0   312      5.2   849.7    0.00       0    999.0
 126   21:50   59.5    42    3.3   316      4.3   849.7    0.00       0    999.0
 126   22:00   58.2    46    3.2   308      5.0   849.7    0.00       0    999.0
 126   22:10   59.0    44    2.4   297      4.4   849.7    0.00       0    999.0
 126   22:20   57.9    47    2.9   272      4.7   849.7    0.00       0    999.0
 126   22:30   57.8    46    3.8   224      6.4   849.8    0.00       0    999.0
 126   22:40   60.2    40    1.8   260      4.0   849.8    0.00       0    999.0
 126   22:50   58.9    44    1.6   324      5.3   849.9    0.00       0    999.0
 126   23:00   58.0    44    1.5    30      5.7   849.9    0.00       0    999.0
 126   23:10   56.4    48    2.0   348      3.7   850.0    0.00       0    999.0
 126   23:20   55.8    50    2.4   345      4.4   850.0    0.00       0    999.0
 126   23:30   53.9    54    2.9   305      4.2   850.0    0.00       0    999.0
 126   23:40   54.3    53    2.2   310      3.6   850.1    0.00       0    999.0
 126   23:50   53.2    56    4.3   275      5.1   850.1    0.00       0    999.0
 127    0:00   53.2    57    2.7   287      4.7   850.1    0.00       0    999.0
 127    0:10   53.0    58    2.9   273      5.0   850.1    0.00       0    999.0
 127    0:20   52.4    59    2.7   268      4.5   850.2    0.00       0    999.0
 127    0:30   52.8    59    2.7   278      4.5   850.2    0.00       0    999.0
 127    0:40   51.9    62    4.9   272      7.1   850.2    0.00       0    999.0
 127    0:50   52.0    62    4.9   272      6.6   850.2    0.00       0    999.0
 127    1:00   51.6    63    4.3   276      5.7   850.1    0.00       0    999.0
 127    1:10   52.0    62    4.8   277      6.9   850.1    0.00       0    999.0
 127    1:20   52.3    61    3.9   280      5.5   850.0    0.00       0    999.0
 127    1:30   52.5    60    3.6   281      6.2   850.0    0.00       0    999.0
 127    1:40   51.4    64    5.2   270      6.7   849.9    0.00       0    999.0
 127    1:50   52.0    62    5.0   268      7.1   849.8    0.00       0    999.0
 127    2:00   51.2    64    4.0   278      6.2   849.8    0.00       0    999.0
 127    2:10   51.0    64    3.4   292      4.9   849.7    0.00       0    999.0
 127    2:20   51.3    62    2.7   296      4.2   849.8    0.00       0    999.0
 127    2:30   51.1    62    2.9   288      4.8   849.9    0.00       0    999.0
 127    2:40   50.4    65    4.4   270      5.7   849.8    0.00       0    999.0
 127    2:50   49.9    66    3.7   281      6.1   849.7    0.00       0    999.0
 127    3:00   50.3    65    2.7   284      4.5   849.7    0.00       0    999.0
 127    3:10   50.8    63    3.0   281      4.2   849.7    0.00       0    999.0
 127    3:20   49.5    67    3.8   273      5.6   849.7    0.00       0    999.0
 127    3:30   49.5    67    3.1   282      4.6   849.7    0.00       0    999.0
 127    3:40   49.6    66    3.6   280      5.0   849.7    0.00       0    999.0
 127    3:50   49.3    68    4.0   274      6.0   849.7    0.00       0    999.0
 127    4:00   48.8    69    3.2   281      5.0   849.7    0.00       0    999.0
 127    4:10   48.8    68    3.4   275      5.6   849.7    0.00       0    999.0
 127    4:20   49.0    66    1.7   309      4.0   849.7    0.00       0    999.0
 127    4:30   49.1    65    2.2   273      4.7   849.7    0.00       0    999.0
 127    4:40   48.2    68    2.1   263      5.0   849.7    0.00       0    999.0
 127    4:50   47.4    71    2.8   287      5.9   849.7    0.00       1    999.0
 127    5:00   47.7    68    1.4   340      2.8   849.8    0.00       2    999.0
 127    5:10   48.4    65    1.7   273      3.5   849.8    0.00       7    999.0
 127    5:20   48.7    65    2.6   266      5.0   849.8    0.00      22    999.0
 127    5:30   49.3    65    2.4   273      4.9   849.7    0.00      48    999.0
 127    5:40   51.6    61    0.6   288      2.3   849.8    0.00      81    999.0
 127    5:50   53.7    56    1.1   324      3.1   849.8    0.00     115    999.0
 127    6:00   53.6    58    1.1   309      2.9   849.9    0.00     146    999.0
 127    6:10   54.9    52    1.2    58      3.6   850.0    0.00     178    999.0
 127    6:20   55.9    50    1.5    57      3.4   850.0    0.00     210    999.0
 127    6:30   56.5    50    1.3    52      3.1   850.1    0.00     244    999.0
 127    6:40   57.3    48    1.9    65      4.4   850.1    0.00     279    999.0
 127    6:50   57.1    49    2.4    68      4.3   850.1    0.00     313    999.0
 127    7:00   56.9    48    3.0    84      5.7   850.2    0.00     348    999.0
 127    7:10   57.6    47    3.0    80      5.8   850.2    0.00     382    999.0
 127    7:20   58.7    45    2.4    89      4.3   850.2    0.00     416    999.0
 127    7:30   60.5    42    1.4    57      3.6   850.2    0.00     451    999.0
 127    7:40   60.5    43    2.6    88      5.0   850.2    0.00     485    999.0
 127    7:50   61.1    42    2.0    70      3.9   850.2    0.00     518    999.0
 127    8:00   62.9    40    2.0    86      4.7   850.1    0.00     550    999.0
 127    8:10   63.6    38    0.9     7      2.2   850.2    0.00     583    999.0
 127    8:20   64.5    38    1.5    80      4.5   850.1    0.00     615    999.0
 127    8:30   66.5    35    2.3   126      4.8   850.1    0.00     646    999.0
 127    8:40   66.9    33    2.9    92      5.9   849.9    0.00     676    999.0
 127    8:50   68.0    32    1.6    93      4.9   849.9    0.00     706    999.0
 127    9:00   68.5    33    2.4   118      5.8   849.9    0.00     734    999.0
 127    9:10   68.3    32    2.3   105      5.6   849.9    0.00     761    999.0
 127    9:20   69.6    30    3.1    83      6.0   849.8    0.00     788    999.0
 127    9:30   70.6    28    3.3    84      7.7   849.7    0.00     814    999.0
 127    9:40   71.0    26    4.0    80      7.0   849.6    0.00     839    999.0
 127    9:50   71.8    24    4.4    69      8.1   849.6    0.00     859    999.0
 127   10:00   73.2    22    3.6    52      9.3   849.6    0.00     881    999.0
 127   10:10   73.6    21    5.5   280     12.6   849.6    0.00     902    999.0
 127   10:20   73.7    21    5.7   269     13.0   849.7    0.00     919    999.0
 127   10:30   73.2    21    6.4   264     15.1   849.7    0.00     934    999.0
 127   10:40   73.2    21    8.0   288     16.7   849.6    0.00     947    999.0
 127   10:50   73.7    20    5.2   262     11.4   849.6    0.00     958    999.0
 127   11:00   74.6    20    4.8   247     14.4   849.6    0.00     972    999.0
 127   11:10   74.8    20    3.8   243     13.5   849.5    0.00     982    999.0
 127   11:20   75.5    19    4.0   279     12.4   849.4    0.00     990    999.0
 127   11:30   74.2    21    7.2   259     18.1   849.4    0.00     993    999.0

Return to Yerington, Nevada graphs page.


Western Regional Climate Center,wrcc@dri.edu